View Single Post
Old 7th Aug 2018, 23:15
  #1 (permalink)  
METARHIMS
 
Join Date: Sep 2014
Location: KCLE
Posts: 8
EGLL (Heathrow) METAR reports

METAR COR EGLL 072150Z AUTO 28010KT 9999 //////CB 21/14 Q1006
NOSIG=

METAR COR EGLL 071950Z AUTO 24007G19KT 9999 //////TCU 24/14
Q1006 TEMPO SHRA=

METAR COR EGLL 071350Z AUTO 23012KT 9999 //////CB 28/14 Q1007
NOSIG=

Some select observations from Heathrow on August 7th. How are these acceptable/compliant? Significant clouds but no heights reported? For Europe's busiest airport?
METARHIMS is offline